Time;durP1;ratioP1;P1;durP2;ratioP2;P2;SDS_P1;SDS_P2;PMS_P1;PMS_P2;Temp;Humidity;BMP_temperature;BMP_pressure;BME280_temperature;BME280_humidity;BME280_pressure;Samples;Min_cycle;Max_cycle;Signal;HPM_P1;HPM_P2
2021/09/15 00:03:50;;;;;;;;;;;19.20;99.90;;;18.26;91.29;95611.47;10520047;28;2027;-75
2021/09/15 00:08:53;;;;;;;;;;;19.10;99.90;;;18.15;91.98;95610.22;10525264;28;2109;-76
2021/09/15 00:13:56;;;;;;;;;;;19.10;99.90;;;18.12;92.09;95598.06;10516073;28;1959;-75
2021/09/15 00:18:59;;;;;;;;;;;19.10;99.90;;;18.07;92.17;95595.53;10520849;28;2053;-76
2021/09/15 00:24:02;;;;;;;;;;;19.00;99.90;;;18.11;91.88;95588.31;10510861;28;1630;-76
2021/09/15 00:29:04;;;;;;;;;;;19.00;99.90;;;18.11;92.55;95593.75;10519525;28;2352;-76
2021/09/15 00:34:07;;;;;;;;;;;19.10;99.90;;;18.13;92.59;95579.81;10519021;28;2121;-76
2021/09/15 00:39:10;;;;;;;;;;;19.10;99.90;;;18.01;93.23;95580.53;10523479;28;2075;-77
2021/09/15 00:44:14;;;;;;;;;;;19.00;99.90;;;17.99;93.59;95575.38;10518193;28;2157;-76
2021/09/15 00:49:17;;;;;;;;;;;19.00;99.90;;;17.87;94.19;95571.75;10514078;28;2515;-77
2021/09/15 00:54:20;;;;;;;;;;;18.90;99.90;;;17.71;95.93;95575.00;10510329;28;2146;-76
2021/09/15 00:59:23;;;;;;;;;;;18.80;99.90;;;17.78;95.19;95580.72;10512207;28;2467;-75
2021/09/15 01:04:25;;;;;;;;;;;18.80;99.90;;;17.73;95.53;95582.81;10513935;28;2134;-74
2021/09/15 01:09:28;;;;;;;;;;;18.80;99.90;;;17.82;94.92;95567.31;10515480;28;2125;-75
2021/09/15 01:14:51;;;;;;;;;;;18.80;99.90;;;17.89;94.60;95580.41;10508565;28;2188;-75
2021/09/15 01:19:54;;;;;;;;;;;18.80;99.90;;;17.71;95.60;95591.31;10517885;28;2012;-76
2021/09/15 01:24:58;;;;;;;;;;;18.80;99.90;;;17.79;95.35;95582.31;10513934;28;2113;-78
2021/09/15 01:30:01;;;;;;;;;;;18.80;99.90;;;17.84;94.58;95578.66;10524202;28;2063;-76
2021/09/15 01:35:03;;;;;;;;;;;18.80;99.90;;;17.63;95.52;95555.97;10511772;28;2234;-77
2021/09/15 01:40:06;;;;;;;;;;;18.70;99.90;;;17.62;95.93;95555.16;10513258;28;2114;-75
2021/09/15 01:45:09;;;;;;;;;;;18.70;99.90;;;17.56;96.43;95551.81;10513546;28;2302;-74
2021/09/15 01:50:12;;;;;;;;;;;18.60;99.90;;;17.39;98.05;95561.91;10512756;28;2039;-75
2021/09/15 01:55:15;;;;;;;;;;;18.50;99.90;;;17.50;97.64;95552.31;10516507;28;2003;-76
2021/09/15 02:00:18;;;;;;;;;;;18.40;99.90;;;17.54;97.14;95545.91;10529123;28;2153;-76
2021/09/15 02:05:20;;;;;;;;;;;18.40;99.90;;;17.38;97.99;95560.34;10523458;28;2142;-75
2021/09/15 02:10:23;;;;;;;;;;;18.40;99.90;;;17.34;98.80;95553.94;10524608;28;2127;-75
2021/09/15 02:15:26;;;;;;;;;;;18.30;99.90;;;17.39;98.49;95554.56;10512540;28;2035;-76
2021/09/15 02:20:29;;;;;;;;;;;18.30;99.90;;;17.36;98.61;95554.41;10520973;28;2093;-76
2021/09/15 02:25:32;;;;;;;;;;;18.30;99.90;;;17.39;98.42;95551.06;10517039;28;2091;-75
2021/09/15 02:30:35;;;;;;;;;;;18.30;99.90;;;17.08;100.00;95541.16;10524794;28;2181;-75
2021/09/15 02:35:37;;;;;;;;;;;18.20;99.90;;;17.07;100.00;95530.63;10514670;28;2100;-76
2021/09/15 02:40:40;;;;;;;;;;;18.10;99.90;;;17.16;100.00;95532.22;10518141;28;2260;-76
2021/09/15 02:45:43;;;;;;;;;;;18.10;99.90;;;17.17;99.31;95533.81;10527042;28;2174;-77
2021/09/15 02:50:46;;;;;;;;;;;18.10;99.90;;;17.12;99.97;95528.56;10519400;28;1988;-76
2021/09/15 02:55:49;;;;;;;;;;;18.10;99.90;;;17.04;100.00;95523.91;10522382;28;2463;-77
2021/09/15 03:00:52;;;;;;;;;;;18.10;99.90;;;16.93;100.00;95522.66;10517964;28;2120;-76
2021/09/15 03:05:55;;;;;;;;;;;18.00;99.90;;;16.90;100.00;95524.09;10523003;28;2184;-75
2021/09/15 03:10:58;;;;;;;;;;;18.00;99.90;;;16.93;100.00;95519.94;10515911;28;2169;-75
2021/09/15 03:16:00;;;;;;;;;;;17.90;99.90;;;16.97;100.00;95534.47;10518385;28;2084;-75
2021/09/15 03:21:03;;;;;;;;;;;17.90;99.90;;;17.01;99.85;95533.50;10521818;28;2219;-75
2021/09/15 03:26:06;;;;;;;;;;;18.00;99.90;;;16.92;100.00;95537.31;10540328;28;2102;-73
2021/09/15 03:31:09;;;;;;;;;;;17.90;99.90;;;17.08;99.52;95524.88;10534537;28;1873;-74
2021/09/15 03:36:12;;;;;;;;;;;18.00;99.90;;;16.99;100.00;95522.19;10528418;28;2007;-76
2021/09/15 03:41:15;;;;;;;;;;;18.00;99.90;;;17.02;99.73;95526.94;10534691;28;2020;-75
2021/09/15 03:46:18;;;;;;;;;;;17.90;99.90;;;17.07;99.62;95517.84;10535754;28;2250;-74
2021/09/15 03:51:20;;;;;;;;;;;17.90;99.90;;;17.06;99.56;95513.53;10540644;28;1971;-74
2021/09/15 03:56:23;;;;;;;;;;;18.00;99.90;;;17.10;98.78;95511.75;10525476;28;2034;-75
2021/09/15 04:01:26;;;;;;;;;;;18.00;99.90;;;17.03;99.74;95506.03;10522551;28;1872;-76
2021/09/15 04:06:29;;;;;;;;;;;18.00;99.90;;;17.12;98.96;95504.13;10526901;28;2055;-76
2021/09/15 04:11:32;;;;;;;;;;;17.90;99.90;;;17.22;97.53;95509.19;10519451;28;1814;-75
2021/09/15 04:16:35;;;;;;;;;;;18.00;99.90;;;17.13;97.63;95508.44;10515922;28;2087;-75
2021/09/15 04:21:39;;;;;;;;;;;18.00;99.90;;;17.05;97.20;95498.38;10515530;28;1854;-75
2021/09/15 04:32:03;;;;;;;;;;;18.00;99.90;;;17.12;96.81;95495.97;10513641;28;1782;-74
2021/09/15 04:37:05;;;;;;;;;;;18.00;99.90;;;17.16;96.19;95504.25;10513913;28;2059;-76
2021/09/15 04:42:08;;;;;;;;;;;18.10;99.90;;;17.06;96.56;95504.59;10519200;28;1996;-75
2021/09/15 04:47:11;;;;;;;;;;;18.10;99.90;;;17.03;97.10;95500.59;10523810;28;1939;-77
2021/09/15 04:52:14;;;;;;;;;;;18.00;99.90;;;17.01;97.65;95509.06;10530924;28;2328;-76
2021/09/15 04:57:17;;;;;;;;;;;18.00;99.90;;;17.14;96.77;95511.94;10535631;28;2095;-74
2021/09/15 05:02:20;;;;;;;;;;;18.00;99.90;;;17.22;95.93;95520.06;10536798;28;2108;-73
2021/09/15 05:07:23;;;;;;;;;;;18.10;99.90;;;17.27;96.10;95519.09;10566580;28;1866;-73
2021/09/15 05:12:25;;;;;;;;;;;18.10;99.90;;;17.40;95.45;95515.41;10563732;28;1857;-75
2021/09/15 05:17:28;;;;;;;;;;;18.30;99.90;;;17.69;93.73;95522.84;10560498;28;1934;-73
2021/09/15 05:22:31;;;;;;;;;;;18.40;99.90;;;17.84;90.86;95526.97;10533151;28;2166;-75
2021/09/15 05:27:34;;;;;;;;;;;18.70;99.90;;;17.70;90.94;95529.09;10520732;28;1860;-75
2021/09/15 05:32:37;;;;;;;;;;;18.60;99.90;;;17.71;91.17;95522.53;10530438;28;2030;-76
2021/09/15 05:37:40;;;;;;;;;;;18.60;99.90;;;17.78;90.53;95512.75;10530612;28;2311;-76
2021/09/15 05:42:43;;;;;;;;;;;18.60;99.90;;;17.92;89.69;95525.34;10522139;28;2101;-76
2021/09/15 05:47:46;;;;;;;;;;;18.70;99.90;;;18.03;87.64;95529.31;10526978;28;2016;-76
2021/09/15 05:52:49;;;;;;;;;;;18.80;99.90;;;17.87;89.15;95520.09;10528912;28;1794;-75
2021/09/15 05:57:52;;;;;;;;;;;18.80;99.90;;;18.10;88.07;95532.31;10560928;28;1894;-80
2021/09/15 06:02:54;;;;;;;;;;;18.90;99.90;;;18.19;87.96;95530.34;10559300;28;1715;-78
2021/09/15 06:07:57;;;;;;;;;;;19.00;99.90;;;18.27;88.26;95532.22;10577583;28;1822;-78
2021/09/15 06:13:00;;;;;;;;;;;19.10;99.90;;;18.51;86.81;95530.78;10546210;28;2027;-80
2021/09/15 06:18:03;;;;;;;;;;;19.20;99.90;;;18.71;86.86;95529.28;10538105;28;2062;-80
2021/09/15 06:23:06;;;;;;;;;;;19.40;99.90;;;18.67;86.87;95531.06;10529862;28;2010;-80
2021/09/15 06:28:09;;;;;;;;;;;19.50;99.90;;;18.88;85.98;95527.22;10518017;28;2117;-79
2021/09/15 06:33:12;;;;;;;;;;;19.60;99.90;;;19.11;85.46;95537.78;10518757;28;1957;-79
2021/09/15 06:38:15;;;;;;;;;;;19.80;99.90;;;19.32;84.48;95537.75;10535973;28;2013;-78
2021/09/15 06:43:18;;;;;;;;;;;19.90;99.90;;;19.50;83.71;95546.56;10530535;28;1948;-77
2021/09/15 06:48:21;;;;;;;;;;;20.10;99.90;;;19.72;81.95;95535.28;10519791;28;2071;-77
2021/09/15 06:53:24;;;;;;;;;;;20.30;99.90;;;20.13;79.26;95536.25;10524203;28;1983;-78
2021/09/15 06:58:27;;;;;;;;;;;20.60;99.90;;;20.44;78.05;95539.22;10530974;28;2043;-82
2021/09/15 07:03:30;;;;;;;;;;;20.90;99.90;;;20.29;78.15;95548.06;10516444;28;2118;-78
2021/09/15 07:08:32;;;;;;;;;;;21.00;99.90;;;19.97;78.80;95545.09;10510954;28;1972;-80
2021/09/15 07:13:35;;;;;;;;;;;21.00;99.90;;;19.88;81.08;95543.63;10524293;28;1983;-80
2021/09/15 07:18:38;;;;;;;;;;;20.80;99.90;;;19.73;87.30;95536.88;10524491;28;1915;-78
2021/09/15 07:23:41;;;;;;;;;;;20.70;99.90;;;19.57;87.58;95544.06;10566155;28;2019;-78
2021/09/15 07:28:44;;;;;;;;;;;20.50;99.90;;;19.42;90.14;95543.59;10551747;28;2019;-77
2021/09/15 07:33:47;;;;;;;;;;;20.40;99.90;;;19.38;92.00;95542.66;10526759;28;1965;-78
2021/09/15 07:38:50;;;;;;;;;;;20.20;99.90;;;19.65;87.93;95554.91;10539227;28;1976;-78
2021/09/15 07:43:52;;;;;;;;;;;20.40;99.90;;;19.91;86.40;95551.94;10541706;28;2224;-78
2021/09/15 07:48:55;;;;;;;;;;;20.50;99.90;;;19.92;86.12;95556.25;10544894;28;1971;-78
2021/09/15 07:53:59;;;;;;;;;;;20.60;99.90;;;20.27;83.21;95553.09;10538308;28;2102;-78
2021/09/15 07:59:02;;;;;;;;;;;20.90;99.90;;;20.80;80.09;95551.25;10525213;28;1940;-78
2021/09/15 08:04:04;;;;;;;;;;;21.20;99.90;;;21.12;78.93;95540.47;10523685;28;2007;-77
2021/09/15 08:09:07;;;;;;;;;;;21.60;99.90;;;21.31;77.76;95544.22;10525375;28;1845;-78
2021/09/15 08:14:10;;;;;;;;;;;21.80;99.90;;;21.24;75.60;95538.50;10529497;28;2043;-76
2021/09/15 08:19:13;;;;;;;;;;;22.00;99.90;;;20.85;76.52;95520.19;10512122;28;2029;-76
2021/09/15 08:24:16;;;;;;;;;;;21.90;99.90;;;20.65;76.48;95505.53;10516662;28;2031;-76
2021/09/15 08:29:19;;;;;;;;;;;21.60;99.90;;;21.02;75.32;95495.31;10530190;28;2007;-78
2021/09/15 08:34:21;;;;;;;;;;;21.60;99.90;;;21.32;73.29;95504.00;10528623;28;1992;-76
2021/09/15 08:39:25;;;;;;;;;;;21.90;99.90;;;21.84;72.09;95508.50;10524853;28;1897;-76
2021/09/15 08:44:27;;;;;;;;;;;22.30;99.90;;;22.52;67.69;95507.41;10523403;28;2065;-75
2021/09/15 08:49:33;;;;;;;;;;;22.80;99.90;;;22.89;67.74;95511.41;10526168;28;1983;-77
2021/09/15 08:54:35;;;;;;;;;;;23.20;99.90;;;23.20;66.17;95505.03;10529935;28;2026;-77
2021/09/15 08:59:38;;;;;;;;;;;23.60;99.90;;;23.36;65.94;95504.16;10530694;28;1999;-76
2021/09/15 09:04:41;;;;;;;;;;;23.80;99.90;;;23.86;62.54;95502.38;10528726;28;2058;-75
2021/09/15 09:09:44;;;;;;;;;;;24.10;99.90;;;24.04;61.64;95492.47;10517057;28;2058;-76
2021/09/15 09:14:47;;;;;;;;;;;24.40;99.90;;;23.97;61.60;95495.09;10518637;28;1951;-75
2021/09/15 09:19:50;;;;;;;;;;;24.50;99.90;;;23.76;63.18;95502.97;10506001;28;3398;-76
2021/09/15 09:24:55;;;;;;;;;;;24.40;99.90;;;23.82;63.28;95501.50;10508994;28;2333;-75
2021/09/15 09:29:57;;;;;;;;;;;24.40;99.90;;;23.59;63.71;95506.94;10515094;28;2260;-75
2021/09/15 09:35:04;;;;;;;;;;;24.40;99.90;;;23.29;64.60;95507.56;10512845;28;2352;-75
2021/09/15 09:40:06;;;;;;;;;;;24.20;99.90;;;23.12;65.48;95510.72;10512219;28;2356;-73
2021/09/15 09:45:09;;;;;;;;;;;23.90;99.90;;;22.96;66.54;95532.69;10504153;28;2027;-72
2021/09/15 09:50:12;;;;;;;;;;;23.80;99.90;;;22.95;66.94;95557.75;10520143;28;2205;-76
2021/09/15 09:55:15;;;;;;;;;;;23.70;99.90;;;22.45;68.32;95557.34;10520463;28;2098;-73
2021/09/15 10:00:18;;;;;;;;;;;23.40;99.90;;;22.48;69.27;95551.19;10518884;28;1921;-73
2021/09/15 10:05:21;;;;;;;;;;;23.30;99.90;;;23.23;67.33;95552.09;10509444;28;2087;-73
2021/09/15 10:10:23;;;;;;;;;;;23.70;99.90;;;24.00;63.28;95550.09;10511176;28;2266;-74
2021/09/15 10:15:26;;;;;;;;;;;24.30;99.90;;;23.78;62.65;95556.34;10519020;28;2047;-74
2021/09/15 10:20:29;;;;;;;;;;;24.50;99.90;;;23.86;63.12;95552.59;10524918;28;2110;-74
2021/09/15 10:25:32;;;;;;;;;;;24.50;99.90;;;24.32;62.61;95557.28;10519954;28;2310;-74
2021/09/15 10:30:35;;;;;;;;;;;24.60;99.90;;;23.79;63.59;95563.41;10516349;28;2308;-74
2021/09/15 10:35:38;;;;;;;;;;;24.50;99.90;;;23.60;63.92;95555.97;10524937;28;2216;-75
2021/09/15 10:40:40;;;;;;;;;;;24.40;99.90;;;23.81;63.71;95555.63;10521666;28;2062;-74
2021/09/15 10:45:43;;;;;;;;;;;24.30;99.90;;;23.25;65.65;95555.25;10541574;28;2043;-77
2021/09/15 10:50:46;;;;;;;;;;;24.20;99.90;;;23.43;66.08;95550.94;10527604;28;1618;-78
2021/09/15 10:55:50;;;;;;;;;;;24.10;99.90;;;23.45;65.79;95559.59;10516371;28;2280;-76
2021/09/15 11:00:53;;;;;;;;;;;24.20;99.90;;;22.75;67.20;95543.97;10521831;28;2011;-76
2021/09/15 11:05:57;;;;;;;;;;;23.70;99.90;;;22.89;66.33;95535.28;10527235;28;2090;-76
2021/09/15 11:11:00;;;;;;;;;;;23.60;99.90;;;23.52;64.66;95532.28;10527059;28;2015;-77
2021/09/15 11:16:02;;;;;;;;;;;23.80;99.90;;;23.34;64.79;95542.09;10533384;28;2163;-80
2021/09/15 11:21:11;;;;;;;;;;;24.00;99.90;;;23.36;65.36;95534.34;10525245;28;1860;-75
2021/09/15 11:26:14;;;;;;;;;;;23.90;99.90;;;23.50;64.79;95534.59;10521768;28;2038;-74
2021/09/15 11:31:16;;;;;;;;;;;24.10;99.90;;;24.32;60.11;95533.38;10517513;28;2023;-74
2021/09/15 11:36:19;;;;;;;;;;;24.60;99.90;;;24.69;59.20;95550.06;10516967;28;1984;-75
2021/09/15 11:41:23;;;;;;;;;;;24.90;99.90;;;24.37;59.45;95554.28;10523116;28;2082;-74
2021/09/15 11:46:26;;;;;;;;;;;25.00;99.90;;;24.11;60.88;95552.22;10524900;28;1925;-75
2021/09/15 11:51:29;;;;;;;;;;;24.90;99.90;;;23.45;62.48;95554.09;10511287;28;2080;-74
2021/09/15 11:56:35;;;;;;;;;;;24.50;99.90;;;23.04;65.07;95550.13;10520739;28;2020;-75
2021/09/15 12:01:37;;;;;;;;;;;24.10;99.90;;;22.87;66.50;95551.31;10505508;28;1964;-74
2021/09/15 12:06:40;;;;;;;;;;;23.70;99.90;;;23.15;67.07;95562.09;10520008;28;2103;-74
2021/09/15 12:11:48;;;;;;;;;;;23.70;99.90;;;23.40;67.90;95557.13;10517311;28;2028;-75
2021/09/15 12:16:51;;;;;;;;;;;23.90;99.90;;;23.07;67.52;95554.88;10508005;28;2031;-74
2021/09/15 12:21:53;;;;;;;;;;;23.80;99.90;;;22.62;68.35;95539.75;10515669;28;2280;-74
2021/09/15 12:26:56;;;;;;;;;;;23.70;99.90;;;22.99;67.74;95536.69;10508667;28;2087;-73
2021/09/15 12:31:59;;;;;;;;;;;23.70;99.90;;;23.44;66.08;95525.09;10517337;28;2098;-72
2021/09/15 12:37:02;;;;;;;;;;;23.80;99.90;;;23.24;66.23;95534.47;10515975;28;2038;-74
2021/09/15 12:42:05;;;;;;;;;;;23.90;99.90;;;22.81;70.32;95537.06;10514517;28;2078;-78
2021/09/15 12:47:08;;;;;;;;;;;23.70;99.90;;;22.47;71.12;95540.59;10515014;28;1895;-73
2021/09/15 12:52:10;;;;;;;;;;;23.50;99.90;;;21.98;75.05;95538.97;10512206;28;2026;-74
2021/09/15 12:57:13;;;;;;;;;;;23.10;99.90;;;21.47;82.43;95547.00;10509081;28;1997;-73
2021/09/15 13:02:16;;;;;;;;;;;22.70;99.90;;;20.72;89.67;95546.72;10511886;28;2082;-70
2021/09/15 13:07:19;;;;;;;;;;;22.10;99.90;;;20.24;93.33;95542.88;10506652;28;2087;-71
2021/09/15 13:12:25;;;;;;;;;;;21.50;99.90;;;19.82;100.00;95543.03;10510726;28;2036;-70
2021/09/15 13:17:27;;;;;;;;;;;21.00;99.90;;;19.74;100.00;95538.47;10508023;28;1993;-71
2021/09/15 13:22:30;;;;;;;;;;;20.80;99.90;;;20.05;99.56;95539.91;10498896;28;2294;-69
2021/09/15 13:27:34;;;;;;;;;;;20.80;99.90;;;20.36;99.40;95537.41;10506490;28;1655;-70
2021/09/15 13:32:36;;;;;;;;;;;21.10;99.90;;;20.60;97.67;95527.63;10512160;28;1436;-70
2021/09/15 13:37:40;;;;;;;;;;;21.30;99.90;;;20.63;96.10;95514.09;10514759;28;1984;-70
2021/09/15 13:42:43;;;;;;;;;;;21.50;99.90;;;20.74;91.46;95526.13;10514376;28;1494;-69
2021/09/15 13:47:46;;;;;;;;;;;21.60;99.90;;;20.81;94.28;95498.25;10517688;28;2003;-75
2021/09/15 13:52:49;;;;;;;;;;;21.50;99.90;;;20.45;92.38;95504.56;10533292;28;2059;-75
2021/09/15 13:57:52;;;;;;;;;;;21.50;99.90;;;20.80;92.30;95502.09;10532132;28;2035;-75
2021/09/15 14:02:55;;;;;;;;;;;21.50;99.90;;;21.03;92.32;95466.84;10523390;28;2129;-75
2021/09/15 14:07:57;;;;;;;;;;;21.60;99.90;;;21.19;93.89;95486.03;10529055;28;1908;-75
2021/09/15 14:13:02;;;;;;;;;;;21.70;99.90;;;21.56;91.75;95490.19;10525200;28;2027;-76
2021/09/15 14:18:05;;;;;;;;;;;22.10;99.90;;;21.29;91.95;95491.03;10540842;28;1933;-74
2021/09/15 14:23:07;;;;;;;;;;;22.30;99.90;;;21.21;91.77;95487.28;10526287;28;2342;-75
2021/09/15 14:28:11;;;;;;;;;;;22.20;99.90;;;21.38;87.59;95491.69;10520941;28;2035;-75
2021/09/15 14:33:14;;;;;;;;;;;22.20;99.90;;;21.31;87.20;95500.47;10536208;28;1993;-74
2021/09/15 14:38:16;;;;;;;;;;;22.10;99.90;;;21.31;87.79;95496.94;10530382;28;2087;-76
2021/09/15 14:43:19;;;;;;;;;;;22.20;99.90;;;21.16;87.36;95484.78;10531854;28;2004;-76
2021/09/15 14:48:22;;;;;;;;;;;22.10;99.90;;;21.38;85.41;95488.16;10530694;28;1897;-74
2021/09/15 14:53:25;;;;;;;;;;;22.10;99.90;;;21.42;86.08;95481.63;10529447;28;2047;-74
2021/09/15 14:58:28;;;;;;;;;;;22.20;99.90;;;21.61;83.81;95472.72;10527668;28;2046;-75
2021/09/15 15:03:33;;;;;;;;;;;22.20;99.90;;;21.56;82.97;95479.25;10525567;28;2011;-75
2021/09/15 15:08:36;;;;;;;;;;;22.40;99.90;;;21.62;82.10;95466.13;10521176;28;2015;-75
2021/09/15 15:13:39;;;;;;;;;;;22.30;99.90;;;21.70;81.31;95473.38;10520402;28;1905;-75
2021/09/15 15:18:42;;;;;;;;;;;22.40;99.90;;;21.57;81.30;95464.44;10519472;28;1985;-74
2021/09/15 15:23:45;;;;;;;;;;;22.40;99.90;;;21.31;82.31;95466.84;10523914;28;2004;-75
2021/09/15 15:28:50;;;;;;;;;;;22.30;99.90;;;20.97;83.52;95477.22;10517193;28;2103;-75
2021/09/15 15:33:52;;;;;;;;;;;22.10;99.90;;;20.82;84.32;95477.19;10518086;28;2035;-75
2021/09/15 15:38:55;;;;;;;;;;;21.90;99.90;;;21.01;83.82;95477.34;10513055;28;2054;-73
2021/09/15 15:43:58;;;;;;;;;;;21.80;99.90;;;21.25;83.82;95473.72;10521631;28;2082;-75
2021/09/15 15:49:01;;;;;;;;;;;22.00;99.90;;;21.88;80.61;95479.28;10511270;28;2284;-74
2021/09/15 15:54:04;;;;;;;;;;;22.30;99.90;;;21.98;79.39;95486.97;10515288;28;2025;-73
2021/09/15 15:59:07;;;;;;;;;;;22.60;99.90;;;21.83;80.31;95472.16;10515935;28;1996;-74
2021/09/15 16:04:10;;;;;;;;;;;22.70;99.90;;;21.30;82.50;95470.75;10512351;28;1885;-74
2021/09/15 16:09:12;;;;;;;;;;;22.50;99.90;;;20.59;86.46;95485.06;10510360;28;2094;-74
2021/09/15 16:14:15;;;;;;;;;;;22.00;99.90;;;20.29;89.60;95479.84;10510484;28;2003;-74
2021/09/15 16:19:18;;;;;;;;;;;21.50;99.90;;;20.06;91.06;95479.53;10514954;28;2075;-73
2021/09/15 16:24:21;;;;;;;;;;;21.20;99.90;;;19.93;92.72;95491.56;10518003;28;2031;-74
2021/09/15 16:29:24;;;;;;;;;;;21.00;99.90;;;19.92;92.99;95488.06;10538797;28;1829;-75
2021/09/15 16:34:27;;;;;;;;;;;20.90;99.90;;;19.86;92.42;95475.78;10519083;28;2058;-72
2021/09/15 16:39:30;;;;;;;;;;;20.90;99.90;;;19.84;92.48;95488.94;10543827;27;2319;-72
2021/09/15 16:44:33;;;;;;;;;;;20.80;99.90;;;19.77;91.90;95482.44;10510753;28;2321;-71
2021/09/15 16:49:35;;;;;;;;;;;20.70;99.90;;;19.85;91.17;95496.00;10530651;28;2158;-71
2021/09/15 16:54:38;;;;;;;;;;;20.70;99.90;;;19.79;91.85;95485.66;10519933;28;2302;-72
2021/09/15 16:59:42;;;;;;;;;;;20.80;99.90;;;19.69;91.77;95493.13;10497073;28;1976;-73
2021/09/15 17:04:44;;;;;;;;;;;20.70;99.90;;;19.73;91.95;95497.91;10511429;28;1936;-72
2021/09/15 17:09:47;;;;;;;;;;;20.70;99.90;;;19.73;91.73;95508.81;10521594;28;2082;-74
2021/09/15 17:14:50;;;;;;;;;;;20.70;99.90;;;19.60;93.24;95510.72;10510842;28;2100;-74
2021/09/15 17:19:53;;;;;;;;;;;20.60;99.90;;;19.57;93.51;95517.59;10523217;28;2238;-75
2021/09/15 17:24:56;;;;;;;;;;;20.60;99.90;;;19.59;94.27;95536.38;10508316;28;2235;-75
2021/09/15 17:29:59;;;;;;;;;;;20.60;99.90;;;19.52;95.28;95541.56;10515071;28;2077;-75
2021/09/15 17:35:02;;;;;;;;;;;20.60;99.90;;;19.50;97.68;95555.53;10504993;28;2117;-74
2021/09/15 17:40:05;;;;;;;;;;;20.50;99.90;;;19.44;97.77;95573.22;10516223;28;1979;-75
2021/09/15 17:45:07;;;;;;;;;;;20.50;99.90;;;19.33;100.00;95578.28;10525005;28;1371;-76
2021/09/15 17:50:10;;;;;;;;;;;20.40;99.90;;;19.16;100.00;95584.69;10515902;28;2272;-75
2021/09/15 17:55:13;;;;;;;;;;;20.30;99.90;;;18.80;100.00;95574.38;10519585;28;1650;-75
2021/09/15 18:00:16;;;;;;;;;;;20.00;99.90;;;18.54;100.00;95582.66;10515351;28;1917;-75
2021/09/15 18:05:19;;;;;;;;;;;19.70;99.90;;;18.37;100.00;95586.25;10517669;28;1365;-76
2021/09/15 18:10:22;;;;;;;;;;;19.60;99.90;;;18.21;100.00;95592.59;10515043;28;1795;-76
2021/09/15 18:15:25;;;;;;;;;;;19.30;99.90;;;18.17;100.00;95589.72;10519756;28;1602;-77
2021/09/15 18:20:28;;;;;;;;;;;19.20;99.90;;;18.06;100.00;95578.41;10515311;28;1910;-77
2021/09/15 18:25:32;;;;;;;;;;;19.10;99.90;;;18.02;100.00;95579.38;10523661;28;1618;-75
2021/09/15 18:30:36;;;;;;;;;;;19.00;99.90;;;17.99;100.00;95575.38;10519353;28;1600;-77
2021/09/15 18:35:40;;;;;;;;;;;19.00;99.90;;;17.98;100.00;95573.00;10528008;28;1530;-76
2021/09/15 18:40:43;;;;;;;;;;;18.90;99.90;;;18.01;100.00;95556.84;10530148;28;1909;-77
2021/09/15 18:45:48;;;;;;;;;;;18.90;99.90;;;17.99;100.00;95563.72;10518225;28;1917;-77
2021/09/15 18:50:51;;;;;;;;;;;18.90;99.90;;;17.89;100.00;95555.94;10525780;28;2795;-77
2021/09/15 18:55:54;;;;;;;;;;;18.90;99.90;;;17.88;100.00;95563.28;10526304;28;1682;-78
2021/09/15 19:00:57;;;;;;;;;;;18.80;99.90;;;17.83;100.00;95558.81;10523588;28;2047;-77
2021/09/15 19:06:00;;;;;;;;;;;18.80;99.90;;;17.94;100.00;95566.59;10520658;28;1987;-76
2021/09/15 19:11:03;;;;;;;;;;;18.80;99.90;;;17.88;100.00;95578.78;10521154;28;2019;-75
2021/09/15 19:16:08;;;;;;;;;;;18.80;99.90;;;17.87;100.00;95582.63;10525638;28;1949;-74
2021/09/15 19:21:11;;;;;;;;;;;18.80;99.90;;;17.83;100.00;95585.22;10511814;28;1969;-73
2021/09/15 19:26:16;;;;;;;;;;;18.80;99.90;;;17.81;100.00;95577.38;10520227;28;2072;-75
2021/09/15 19:31:22;;;;;;;;;;;18.80;99.90;;;17.81;100.00;95588.25;10524805;28;1809;-75
2021/09/15 19:36:31;;;;;;;;;;;18.70;99.90;;;17.94;100.00;95599.22;10520444;28;2015;-75
2021/09/15 19:41:34;;;;;;;;;;;18.80;99.90;;;17.91;100.00;95617.00;10521476;28;2036;-76
2021/09/15 19:46:36;;;;;;;;;;;18.80;99.90;;;18.06;100.00;95611.03;10523435;28;1838;-75
2021/09/15 19:51:39;;;;;;;;;;;18.90;99.90;;;17.90;100.00;95611.91;10520473;28;2075;-75
2021/09/15 19:56:42;;;;;;;;;;;18.90;99.90;;;18.05;100.00;95623.03;10522806;28;1959;-75
2021/09/15 20:01:45;;;;;;;;;;;18.90;99.90;;;18.10;100.00;95616.63;10520655;28;2049;-75
2021/09/15 20:06:48;;;;;;;;;;;18.90;99.90;;;18.14;100.00;95631.19;10517895;28;2043;-73
2021/09/15 20:11:51;;;;;;;;;;;19.00;99.90;;;18.19;100.00;95638.34;10518993;28;1848;-73
2021/09/15 20:16:54;;;;;;;;;;;19.00;99.90;;;18.06;100.00;95643.66;10517991;28;2118;-73
2021/09/15 20:21:57;;;;;;;;;;;19.00;99.90;;;17.97;100.00;95644.84;10519587;28;2014;-74
2021/09/15 20:27:00;;;;;;;;;;;18.90;99.90;;;17.77;100.00;95630.78;10512282;28;2101;-74
2021/09/15 20:32:03;;;;;;;;;;;18.70;99.90;;;17.68;100.00;95621.00;10524648;28;2101;-75
2021/09/15 20:37:06;;;;;;;;;;;18.60;99.90;;;17.50;100.00;95625.69;10514221;28;2038;-75
2021/09/15 20:42:09;;;;;;;;;;;18.50;99.90;;;17.45;100.00;95631.28;10518895;28;2069;-74
2021/09/15 20:47:13;;;;;;;;;;;18.50;99.90;;;17.45;100.00;95634.00;10519876;28;1895;-74
2021/09/15 20:52:15;;;;;;;;;;;18.40;99.90;;;17.49;100.00;95629.50;10532447;28;2048;-75
2021/09/15 20:57:18;;;;;;;;;;;18.40;99.90;;;17.50;100.00;95623.78;10533717;28;2055;-74
2021/09/15 21:02:21;;;;;;;;;;;18.40;99.90;;;17.41;100.00;95630.31;10535801;28;2099;-74
2021/09/15 21:07:24;;;;;;;;;;;18.30;99.90;;;17.31;100.00;95636.88;10524528;28;1992;-76
2021/09/15 21:12:27;;;;;;;;;;;18.20;99.90;;;17.26;100.00;95635.13;10515485;28;2082;-75
2021/09/15 21:17:30;;;;;;;;;;;18.20;99.90;;;17.17;100.00;95642.44;10514691;28;2031;-77
2021/09/15 21:22:33;;;;;;;;;;;18.10;99.90;;;17.10;100.00;95636.69;10521203;28;1904;-78
2021/09/15 21:27:36;;;;;;;;;;;18.00;99.90;;;17.03;100.00;95653.47;10514909;28;2116;-78
2021/09/15 21:32:39;;;;;;;;;;;18.00;99.90;;;17.08;100.00;95641.66;10518718;28;2003;-78
2021/09/15 21:37:42;;;;;;;;;;;18.00;99.90;;;17.03;100.00;95649.94;10519322;28;2175;-78
2021/09/15 21:42:45;;;;;;;;;;;17.90;99.90;;;17.04;100.00;95627.09;10526335;28;2126;-79
2021/09/15 21:47:49;;;;;;;;;;;17.90;99.90;;;17.02;100.00;95615.75;10526056;28;2050;-77
2021/09/15 21:52:51;;;;;;;;;;;17.90;99.90;;;17.05;100.00;95623.28;10530330;28;2087;-78
2021/09/15 21:57:54;;;;;;;;;;;17.90;99.90;;;17.02;100.00;95623.91;10532123;28;2008;-78
2021/09/15 22:02:57;;;;;;;;;;;17.90;99.90;;;16.98;100.00;95612.06;10553155;28;2070;-77
2021/09/15 22:08:00;;;;;;;;;;;17.90;99.90;;;16.95;100.00;95612.72;10529608;28;1786;-78
2021/09/15 22:13:03;;;;;;;;;;;17.90;99.90;;;16.88;100.00;95602.34;10535024;28;2039;-76
2021/09/15 22:18:06;;;;;;;;;;;17.90;99.90;;;16.83;100.00;95599.78;10531257;28;1921;-79
2021/09/15 22:23:09;;;;;;;;;;;17.80;99.90;;;16.82;100.00;95597.38;10528617;28;1988;-77
2021/09/15 22:28:12;;;;;;;;;;;17.80;99.90;;;16.75;100.00;95590.50;10516130;28;2298;-77
2021/09/15 22:33:15;;;;;;;;;;;17.70;99.90;;;16.73;100.00;95595.47;10516110;28;2007;-77
2021/09/15 22:38:18;;;;;;;;;;;17.70;99.90;;;16.74;100.00;95591.63;10518773;28;1976;-77
2021/09/15 22:43:21;;;;;;;;;;;17.70;99.90;;;16.63;100.00;95594.91;10522912;28;1912;-77
2021/09/15 22:48:23;;;;;;;;;;;17.70;99.90;;;16.53;100.00;95593.28;10518792;28;2022;-77
2021/09/15 22:53:26;;;;;;;;;;;17.50;99.90;;;16.48;100.00;95599.69;10520694;28;2329;-76
2021/09/15 22:58:30;;;;;;;;;;;17.50;99.90;;;16.52;100.00;95605.25;10514713;28;2027;-76
2021/09/15 23:03:33;;;;;;;;;;;17.50;99.90;;;16.53;100.00;95600.63;10520133;28;1931;-76
2021/09/15 23:08:36;;;;;;;;;;;17.50;99.90;;;16.51;100.00;95598.25;10521549;28;2056;-76
2021/09/15 23:13:39;;;;;;;;;;;17.50;99.90;;;16.44;100.00;95608.75;10516948;28;1983;-76